createdAt,value
2019-05-03T00:02:29.785Z,10.58
2019-05-03T00:05:23.296Z,10.67
2019-05-03T00:07:59.664Z,10.72
2019-05-03T00:10:32.819Z,10.70
2019-05-03T00:13:06.019Z,10.80
2019-05-03T00:15:38.592Z,10.70
2019-05-03T00:18:12.302Z,10.70
2019-05-03T00:20:44.841Z,10.67
2019-05-03T00:23:17.299Z,10.67
2019-05-03T00:25:50.054Z,10.54
2019-05-03T00:28:22.740Z,10.54
2019-05-03T00:30:55.309Z,10.69
2019-05-03T00:33:31.817Z,10.73
2019-05-03T00:36:12.316Z,10.72
2019-05-03T00:38:44.748Z,10.77
2019-05-03T00:41:17.326Z,10.86
2019-05-03T00:43:51.734Z,10.59
2019-05-03T00:46:23.802Z,10.59
2019-05-03T00:49:00.800Z,10.70
2019-05-03T00:51:33.279Z,10.69
2019-05-03T00:54:05.805Z,10.73
2019-05-03T00:56:38.396Z,10.73
2019-05-03T00:59:12.656Z,10.81
2019-05-03T01:01:45.319Z,10.81
2019-05-03T01:04:17.858Z,10.80
2019-05-03T01:06:50.304Z,10.80
2019-05-03T01:09:23.985Z,10.81
2019-05-03T01:12:01.950Z,10.81
2019-05-03T01:14:36.301Z,10.80
2019-05-03T01:17:08.414Z,10.87
2019-05-03T01:19:40.321Z,10.82
2019-05-03T01:22:12.710Z,10.64
2019-05-03T01:24:45.285Z,10.64
2019-05-03T01:27:17.641Z,10.70
2019-05-03T01:29:51.943Z,10.70
2019-05-03T01:32:25.204Z,10.65
2019-05-03T01:35:03.188Z,10.60
2019-05-03T01:37:35.888Z,10.60
2019-05-03T01:40:10.297Z,10.58
2019-05-03T01:42:46.330Z,10.51
2019-05-03T01:45:18.846Z,10.42
2019-05-03T01:47:59.019Z,10.42
2019-05-03T01:50:39.383Z,10.54
2019-05-03T01:53:13.319Z,10.43
2019-05-03T01:55:53.345Z,10.51
2019-05-03T01:58:27.655Z,10.51
2019-05-03T02:01:16.651Z,10.53
2019-05-03T02:04:06.817Z,10.53
2019-05-03T02:06:39.301Z,10.66
2019-05-03T02:09:12.201Z,10.61
2019-05-03T02:11:44.720Z,10.63
2019-05-03T02:14:17.312Z,10.65
2019-05-03T02:16:49.245Z,10.64
2019-05-03T02:19:22.356Z,10.64
2019-05-03T02:21:54.306Z,10.67
2019-05-03T02:24:28.089Z,10.68
2019-05-03T02:27:02.167Z,10.64
2019-05-03T02:29:34.693Z,10.72
2019-05-03T02:32:07.301Z,10.73
2019-05-03T02:34:39.598Z,10.57
2019-05-03T02:37:13.866Z,10.57
2019-05-03T02:39:47.048Z,10.72
2019-05-03T02:42:19.720Z,10.77
2019-05-03T02:44:55.320Z,10.77
2019-05-03T02:47:28.875Z,10.77
2019-05-03T02:50:05.978Z,10.75
2019-05-03T02:52:38.009Z,10.75
2019-05-03T02:55:16.028Z,10.73
2019-05-03T02:57:47.469Z,10.79
2019-05-03T03:00:25.289Z,10.78
2019-05-03T03:02:58.284Z,10.74
2019-05-03T03:05:31.518Z,10.68
2019-05-03T03:08:06.329Z,10.68
2019-05-03T03:10:45.338Z,10.73
2019-05-03T03:13:19.523Z,10.66
2019-05-03T03:15:55.455Z,10.68
2019-05-03T03:18:36.401Z,10.68
2019-05-03T03:21:20.869Z,10.67
2019-05-03T03:24:13.051Z,10.67
2019-05-03T03:26:47.296Z,10.68
2019-05-03T03:29:27.304Z,10.71
2019-05-03T03:32:20.047Z,10.67
2019-05-03T03:35:21.239Z,10.67
2019-05-03T03:37:50.926Z,10.69
2019-05-03T03:40:25.532Z,10.72
2019-05-03T03:43:05.224Z,10.71
2019-05-03T03:45:39.546Z,10.70
2019-05-03T03:48:15.862Z,10.66
2019-05-03T03:50:52.296Z,10.44
2019-05-03T03:53:27.537Z,10.29
2019-05-03T03:56:05.554Z,10.29
2019-05-03T03:58:38.459Z,10.40
2019-05-03T04:01:15.526Z,10.36
2019-05-03T04:03:47.364Z,10.45
2019-05-03T04:06:21.556Z,10.39
2019-05-03T04:08:56.114Z,10.39
2019-05-03T04:11:29.037Z,10.63
2019-05-03T04:14:01.572Z,10.63
2019-05-03T04:16:58.181Z,10.71
2019-05-03T04:19:36.606Z,10.75
2019-05-03T04:22:09.415Z,10.59
2019-05-03T04:24:42.050Z,10.81
2019-05-03T04:27:22.742Z,10.69
2019-05-03T04:29:55.582Z,10.65
2019-05-03T04:32:29.249Z,10.54
2019-05-03T04:35:01.790Z,10.52
2019-05-03T04:37:35.895Z,10.52
2019-05-03T04:40:10.456Z,10.60
2019-05-03T04:42:46.806Z,10.56
2019-05-03T04:45:17.354Z,10.61
2019-05-03T04:47:49.720Z,10.69
2019-05-03T04:50:25.264Z,10.69
2019-05-03T04:52:56.927Z,10.74
2019-05-03T04:55:29.703Z,10.81
2019-05-03T04:58:04.647Z,10.80
2019-05-03T05:00:36.212Z,10.82
2019-05-03T05:03:08.974Z,10.86
2019-05-03T05:05:41.738Z,10.86
2019-05-03T05:08:16.302Z,10.86
2019-05-03T05:10:48.398Z,10.96
2019-05-03T05:13:21.280Z,11.01
2019-05-03T05:15:55.067Z,10.99
2019-05-03T05:18:36.759Z,10.99
2019-05-03T05:21:11.306Z,11.02
2019-05-03T05:23:47.598Z,11.07
2019-05-03T05:26:24.877Z,11.07
2019-05-03T05:29:05.393Z,11.13
2019-05-03T05:31:37.894Z,11.16
2019-05-03T05:34:10.473Z,11.16
2019-05-03T05:36:45.075Z,11.20
2019-05-03T05:39:21.361Z,11.20
2019-05-03T05:41:55.458Z,11.24
2019-05-03T05:44:29.319Z,11.24
2019-05-03T05:47:04.691Z,11.37
2019-05-03T05:49:55.011Z,11.37
2019-05-03T05:52:29.354Z,11.38
2019-05-03T05:55:04.632Z,11.46
2019-05-03T05:57:45.014Z,11.46
2019-05-03T06:00:25.637Z,11.41
2019-05-03T06:02:59.501Z,11.28
2019-05-03T06:05:32.047Z,11.20
2019-05-03T06:08:05.386Z,11.11
2019-05-03T06:10:42.354Z,11.05
2019-05-03T06:13:29.336Z,10.95
2019-05-03T06:16:10.980Z,10.95
2019-05-03T06:18:54.280Z,10.72
2019-05-03T06:21:26.293Z,10.36
2019-05-03T06:24:06.429Z,10.28
2019-05-03T06:26:40.404Z,10.20
2019-05-03T06:29:14.830Z,10.09
2019-05-03T06:31:48.849Z,10.02
2019-05-03T06:34:21.516Z,10.10
2019-05-03T06:36:55.566Z,10.11
2019-05-03T06:39:30.307Z,10.12
2019-05-03T06:42:05.071Z,10.04
2019-05-03T06:44:37.348Z,10.04
2019-05-03T06:47:10.592Z,9.76
2019-05-03T06:49:44.893Z,9.55
2019-05-03T06:52:19.629Z,9.58
2019-05-03T06:54:51.631Z,9.56
2019-05-03T06:57:25.409Z,9.81
2019-05-03T07:00:10.287Z,9.90
2019-05-03T07:02:44.762Z,10.11
2019-05-03T07:05:22.067Z,10.11
2019-05-03T07:08:15.146Z,10.42
2019-05-03T07:10:49.508Z,10.41
2019-05-03T07:13:22.303Z,10.68
2019-05-03T07:15:56.001Z,10.66
2019-05-03T07:21:16.743Z,11.15
2019-05-03T07:23:49.278Z,11.10
2019-05-03T07:26:21.764Z,10.92
2019-05-03T07:28:54.638Z,10.92
2019-05-03T07:31:27.302Z,11.01
2019-05-03T07:34:00.406Z,10.81
2019-05-03T07:36:32.854Z,10.74
2019-05-03T07:39:07.636Z,10.88
2019-05-03T07:41:40.269Z,10.88
2019-05-03T07:44:12.685Z,11.04
2019-05-03T07:46:45.364Z,11.04
2019-05-03T07:49:17.865Z,11.21
2019-05-03T07:51:50.756Z,11.08
2019-05-03T07:54:24.838Z,11.05
2019-05-03T07:56:59.225Z,11.00
2019-05-03T07:59:31.802Z,10.89
2019-05-03T08:02:05.566Z,10.94
2019-05-03T08:04:37.754Z,10.94
2019-05-03T08:07:20.664Z,11.11
2019-05-03T08:09:46.050Z,11.10
2019-05-03T08:12:19.299Z,11.20
2019-05-03T08:14:51.841Z,11.38
2019-05-03T08:17:25.663Z,11.38
2019-05-03T08:19:59.671Z,11.44
2019-05-03T08:22:34.406Z,11.88
2019-05-03T08:25:09.313Z,12.26
2019-05-03T08:27:41.880Z,12.33
2019-05-03T08:30:16.710Z,12.33
2019-05-03T08:32:54.925Z,12.52
2019-05-03T08:35:35.434Z,12.32
2019-05-03T08:38:07.257Z,13.08
2019-05-03T08:40:41.514Z,13.59
2019-05-03T08:43:15.421Z,13.59
2019-05-03T08:45:47.844Z,13.56
2019-05-03T08:48:20.443Z,13.36
2019-05-03T08:50:55.288Z,13.72
2019-05-03T08:53:27.286Z,14.21
2019-05-03T08:56:01.395Z,14.06
2019-05-03T08:58:35.128Z,14.28
2019-05-03T09:01:09.470Z,14.49
2019-05-03T09:03:42.294Z,15.25
2019-05-03T09:06:15.519Z,14.44
2019-05-03T09:08:48.576Z,14.44
2019-05-03T09:11:31.836Z,14.61
2019-05-03T09:13:57.334Z,14.91
2019-05-03T09:16:31.572Z,14.69
2019-05-03T09:19:05.547Z,14.79
2019-05-03T09:21:38.627Z,14.29
2019-05-03T09:24:36.378Z,14.75
2019-05-03T09:27:09.342Z,15.63
2019-05-03T09:30:35.713Z,15.63
2019-05-03T09:37:07.867Z,16.24
2019-05-03T09:39:40.601Z,16.30
2019-05-03T09:42:14.908Z,16.77
2019-05-03T09:44:47.859Z,17.31
2019-05-03T12:10:52.303Z,19.26
2019-05-03T12:13:21.021Z,19.26
2019-05-03T12:15:55.267Z,18.58
2019-05-03T12:18:28.456Z,18.14
2019-05-03T12:21:07.218Z,17.66
2019-05-03T12:23:39.992Z,17.23
2019-05-03T12:26:14.716Z,17.60
2019-05-03T12:28:47.479Z,17.39
2019-05-03T12:31:31.757Z,17.01
2019-05-03T12:33:55.151Z,17.20
2019-05-03T12:36:27.263Z,16.78
2019-05-03T12:39:01.377Z,16.88
2019-05-03T12:41:35.414Z,17.40
2019-05-03T12:44:08.113Z,17.55
2019-05-03T12:46:45.035Z,18.12
2019-05-03T12:49:17.585Z,18.61
2019-05-03T12:51:50.333Z,18.99
2019-05-03T12:54:25.551Z,20.68
2019-05-03T12:56:58.273Z,23.46
2019-05-03T12:59:30.383Z,20.51
2019-05-03T13:02:07.100Z,20.51
2019-05-03T13:04:44.688Z,19.50
2019-05-03T13:07:19.093Z,19.55
2019-05-03T13:09:51.776Z,19.82
2019-05-03T13:12:28.749Z,23.18
2019-05-03T13:15:51.766Z,25.92
2019-05-03T13:18:25.258Z,26.50
2019-05-03T13:20:58.037Z,24.23
2019-05-03T13:23:30.684Z,22.69
2019-05-03T13:26:06.737Z,22.31
2019-05-03T13:28:39.392Z,22.31
2019-05-03T13:31:26.458Z,22.82
2019-05-03T13:33:58.884Z,22.82
2019-05-03T13:36:31.285Z,23.55
2019-05-03T13:39:13.965Z,23.84
2019-05-03T13:41:45.504Z,25.41
2019-05-03T13:44:18.418Z,24.59
2019-05-03T13:46:51.097Z,24.72
2019-05-03T13:49:23.410Z,24.98
2019-05-03T13:51:55.771Z,27.18
2019-05-03T13:54:28.337Z,26.68
2019-05-03T13:57:00.649Z,24.55
2019-05-03T13:59:35.021Z,24.55
2019-05-03T14:02:15.181Z,24.39
2019-05-03T14:04:50.197Z,22.70
2019-05-03T14:07:15.246Z,21.90
2019-05-03T14:09:47.462Z,21.90
2019-05-03T14:12:19.871Z,21.27
2019-05-03T14:14:55.949Z,20.39
2019-05-03T14:17:29.464Z,20.72
2019-05-03T14:20:06.331Z,20.75
2019-05-03T14:22:40.383Z,19.76
2019-05-03T14:25:12.791Z,19.52
2019-05-03T14:27:45.691Z,19.52
2019-05-03T14:30:20.285Z,18.94
2019-05-03T14:32:52.783Z,17.95
2019-05-03T14:35:25.289Z,17.95
2019-05-03T14:37:57.292Z,18.08
2019-05-03T14:40:29.263Z,18.44
2019-05-03T14:43:01.851Z,18.90
2019-05-03T14:45:35.303Z,18.85
2019-05-03T14:48:08.522Z,23.69
2019-05-03T14:50:41.354Z,23.69
2019-05-03T14:53:14.756Z,25.84
2019-05-03T14:55:49.316Z,28.75
2019-05-03T14:58:32.373Z,27.22
2019-05-03T15:01:12.395Z,27.22
2019-05-03T15:03:45.218Z,28.61
2019-05-03T15:06:17.793Z,24.86
2019-05-03T15:08:50.498Z,24.86
2019-05-03T15:11:23.018Z,23.69
2019-05-03T15:13:57.297Z,22.89
2019-05-03T15:16:29.290Z,20.62
2019-05-03T15:19:02.394Z,20.14
2019-05-03T15:21:35.809Z,20.14
2019-05-03T15:24:07.738Z,20.05
2019-05-03T15:26:40.288Z,20.14
2019-05-03T15:29:12.256Z,19.62
2019-05-03T15:31:47.282Z,19.62
2019-05-03T15:34:20.810Z,19.06
2019-05-03T15:36:54.707Z,19.26
2019-05-03T15:39:27.782Z,18.93
2019-05-03T15:42:05.297Z,18.94
2019-05-03T15:44:54.391Z,19.07
2019-05-03T15:47:44.615Z,18.67
2019-05-03T15:52:50.259Z,18.70
2019-05-03T15:55:26.047Z,17.42
2019-05-03T15:57:58.681Z,17.42
2019-05-03T16:00:31.576Z,17.24
2019-05-03T16:03:08.878Z,17.29
2019-05-03T16:05:38.395Z,17.12
2019-05-03T16:08:10.878Z,16.88
2019-05-03T16:10:45.528Z,16.88
2019-05-03T16:13:22.453Z,16.88
2019-05-03T16:15:55.641Z,16.76
2019-05-03T16:18:28.599Z,16.45
2019-05-03T16:21:01.128Z,16.45
2019-05-03T16:23:35.346Z,16.67
2019-05-03T16:26:14.350Z,16.50
2019-05-03T16:28:48.291Z,16.50
2019-05-03T16:31:22.249Z,16.45
2019-05-03T16:33:55.233Z,16.45
2019-05-03T16:36:27.835Z,17.07
2019-05-03T16:39:00.586Z,17.10
2019-05-03T16:41:35.390Z,17.01
2019-05-03T16:44:07.784Z,16.91
2019-05-03T16:46:40.395Z,16.66
2019-05-03T16:49:12.831Z,16.46
2019-05-03T16:51:46.404Z,16.16
2019-05-03T16:54:18.855Z,15.94
2019-05-03T16:56:51.338Z,15.42
2019-05-03T16:59:24.760Z,15.39
2019-05-03T17:01:57.421Z,15.39
2019-05-03T17:04:34.623Z,15.16
2019-05-03T17:07:15.131Z,15.03
2019-05-03T17:09:49.300Z,14.76
2019-05-03T17:12:25.746Z,14.66
2019-05-03T17:14:58.622Z,14.57
2019-05-03T17:17:31.311Z,14.57
2019-05-03T17:20:05.210Z,14.63
2019-05-03T17:22:37.775Z,14.63
2019-05-03T17:25:10.362Z,14.83
2019-05-03T17:27:44.818Z,15.04
2019-05-03T17:30:17.485Z,15.18
2019-05-03T17:32:49.901Z,15.18
2019-05-03T17:35:22.311Z,15.31
2019-05-03T17:37:55.048Z,15.40
2019-05-03T17:40:27.621Z,15.40
2019-05-03T17:43:05.034Z,15.22
2019-05-03T17:45:42.286Z,14.85
2019-05-03T17:48:14.987Z,14.78
2019-05-03T17:50:47.578Z,14.78
2019-05-03T17:53:27.667Z,14.84
2019-05-03T17:56:01.967Z,14.72
2019-05-03T17:58:52.838Z,14.54
2019-05-03T18:01:44.559Z,14.53
2019-05-03T18:04:21.363Z,14.41
2019-05-03T18:06:55.657Z,14.12
2019-05-03T18:09:30.314Z,14.12
2019-05-03T18:12:04.648Z,13.91
2019-05-03T18:14:37.783Z,13.71
2019-05-03T18:17:10.322Z,13.71
2019-05-03T18:19:44.696Z,13.57
2019-05-03T18:22:16.792Z,13.54
2019-05-03T18:24:49.301Z,13.54
2019-05-03T18:27:21.750Z,13.25
2019-05-03T18:29:55.434Z,13.25
2019-05-03T18:32:27.865Z,13.27
2019-05-03T18:35:00.367Z,13.18
2019-05-03T18:37:34.837Z,13.00
2019-05-03T18:40:10.341Z,13.00
2019-05-03T18:42:50.370Z,12.92
2019-05-03T18:45:42.295Z,12.58
2019-05-03T18:48:15.298Z,12.58
2019-05-03T18:50:47.740Z,12.50
2019-05-03T18:53:20.278Z,12.50
2019-05-03T18:55:52.833Z,12.36
2019-05-03T18:58:27.071Z,12.21
2019-05-03T19:00:59.694Z,11.96
2019-05-03T19:03:32.295Z,11.77
2019-05-03T19:06:14.302Z,11.42
2019-05-03T19:09:05.250Z,11.22
2019-05-03T19:11:47.315Z,11.22
2019-05-03T19:14:21.364Z,11.05
2019-05-03T19:17:01.464Z,10.94
2019-05-03T19:19:39.308Z,10.94
2019-05-03T19:22:12.297Z,10.90
2019-05-03T19:24:44.692Z,10.94
2019-05-03T19:27:17.307Z,10.94
2019-05-03T19:29:49.597Z,10.91
2019-05-03T19:32:22.319Z,10.91
2019-05-03T19:34:54.901Z,10.78
2019-05-03T19:37:28.168Z,10.78
2019-05-03T19:40:00.586Z,11.00
2019-05-03T19:42:35.248Z,11.00
2019-05-03T19:45:09.311Z,10.99
2019-05-03T19:47:40.913Z,10.81
2019-05-03T19:50:15.726Z,10.81
2019-05-03T19:53:06.530Z,11.01
2019-05-03T19:55:38.923Z,10.99
2019-05-03T19:58:11.417Z,10.97
2019-05-03T20:00:57.424Z,10.98
2019-05-03T20:03:36.023Z,10.96
2019-05-03T20:06:19.570Z,10.96
2019-05-03T20:08:56.529Z,10.93
2019-05-03T20:11:29.103Z,10.86
2019-05-03T20:14:01.708Z,10.90
2019-05-03T20:16:34.749Z,10.91
2019-05-03T20:19:17.671Z,10.86
2019-05-03T20:21:42.675Z,10.79
2019-05-03T20:24:15.290Z,10.79
2019-05-03T20:26:48.051Z,10.63
2019-05-03T20:29:20.451Z,10.63
2019-05-03T20:31:52.823Z,10.79
2019-05-03T20:34:25.314Z,10.77
2019-05-03T20:36:57.613Z,10.64
2019-05-03T20:39:30.305Z,10.64
2019-05-03T20:42:04.441Z,10.74
2019-05-03T20:44:54.523Z,10.74
2019-05-03T20:47:28.556Z,10.68
2019-05-03T20:50:17.332Z,10.70
2019-05-03T20:52:49.759Z,10.72
2019-05-03T20:55:22.316Z,10.72
2019-05-03T20:57:56.507Z,10.65
2019-05-03T21:00:29.038Z,10.65
2019-05-03T21:03:01.452Z,10.72
2019-05-03T21:05:36.818Z,10.67
2019-05-03T21:08:08.422Z,10.61
2019-05-03T21:10:40.827Z,10.64
2019-05-03T21:13:14.622Z,10.63
2019-05-03T21:16:14.643Z,10.69
2019-05-03T21:18:56.311Z,10.68
2019-05-03T21:21:39.416Z,10.52
2019-05-03T21:24:19.315Z,10.52
2019-05-03T21:26:51.759Z,10.42
2019-05-03T21:29:24.311Z,10.42
2019-05-03T21:31:56.592Z,10.42
2019-05-03T21:34:29.075Z,10.42
2019-05-03T21:37:01.496Z,10.52
2019-05-03T21:39:34.855Z,10.42
2019-05-03T21:42:08.521Z,10.42
2019-05-03T21:44:40.882Z,10.42
2019-05-03T21:47:22.144Z,10.45
2019-05-03T21:49:56.346Z,10.41
2019-05-03T21:53:22.295Z,10.50
2019-05-03T21:55:56.647Z,10.39
2019-05-03T21:58:29.043Z,10.41
2019-05-03T22:01:05.060Z,10.43
2019-05-03T22:03:42.038Z,10.40
2019-05-03T22:06:15.410Z,10.40
2019-05-03T22:08:49.294Z,10.52
2019-05-03T22:11:21.272Z,10.44
2019-05-03T22:13:57.026Z,10.39
2019-05-03T22:16:45.015Z,10.34
2019-05-03T22:19:19.473Z,10.31
2019-05-03T22:22:05.604Z,10.31
2019-05-03T22:24:44.684Z,10.25
2019-05-03T22:27:17.317Z,10.23
2019-05-03T22:29:49.644Z,10.20
2019-05-03T22:32:22.304Z,10.20
2019-05-03T22:34:54.596Z,10.20
2019-05-03T22:37:27.055Z,10.20
2019-05-03T22:39:59.354Z,10.17
2019-05-03T22:42:34.439Z,10.19
2019-05-03T22:45:08.607Z,10.18
2019-05-03T22:47:41.314Z,10.20
2019-05-03T22:50:14.885Z,10.18
2019-05-03T22:52:47.698Z,10.18
2019-05-03T22:55:20.294Z,10.29
2019-05-03T22:57:54.587Z,10.28
2019-05-03T23:00:27.310Z,10.28
2019-05-03T23:03:02.806Z,10.23
2019-05-03T23:05:37.262Z,10.23
2019-05-03T23:08:11.169Z,10.28
2019-05-03T23:10:45.134Z,10.33
2019-05-03T23:13:18.298Z,10.25
2019-05-03T23:15:50.669Z,10.32
2019-05-03T23:18:24.650Z,10.32
2019-05-03T23:21:05.704Z,10.34
2019-05-03T23:23:54.657Z,10.35
2019-05-03T23:26:26.806Z,10.37
2019-05-03T23:28:59.321Z,10.37
2019-05-03T23:31:31.729Z,10.35
2019-05-03T23:34:04.941Z,10.35
2019-05-03T23:36:39.323Z,10.41
2019-05-03T23:39:11.842Z,10.19
2019-05-03T23:41:44.293Z,10.19
2019-05-03T23:44:18.302Z,10.03
2019-05-03T23:46:55.296Z,9.82
2019-05-03T23:49:27.662Z,9.77
2019-05-03T23:52:17.469Z,9.77
2019-05-03T23:54:49.804Z,10.03
2019-05-03T23:57:25.177Z,10.10
2019-05-03T23:59:58.295Z,10.14
